sensor_id;sensor_type;location;lat;lon;timestamp;P1;durP1;ratioP1;P2;durP2;ratioP2
76256;SDS011;65074;50.436;8.672;2023-03-14T00:00:37;1.15;;;0.80;;
76256;SDS011;65074;50.436;8.672;2023-03-14T00:03:02;2.40;;;1.17;;
76256;SDS011;65074;50.436;8.672;2023-03-14T00:05:28;1.77;;;1.20;;
76256;SDS011;65074;50.436;8.672;2023-03-14T00:07:53;2.92;;;0.93;;
76256;SDS011;65074;50.436;8.672;2023-03-14T00:10:19;2.95;;;1.63;;
76256;SDS011;65074;50.436;8.672;2023-03-14T00:12:45;2.25;;;1.30;;
76256;SDS011;65074;50.436;8.672;2023-03-14T00:15:10;2.00;;;1.20;;
76256;SDS011;65074;50.436;8.672;2023-03-14T00:17:36;3.58;;;1.25;;
76256;SDS011;65074;50.436;8.672;2023-03-14T00:20:06;2.30;;;1.58;;
76256;SDS011;65074;50.436;8.672;2023-03-14T00:22:39;2.30;;;1.30;;
76256;SDS011;65074;50.436;8.672;2023-03-14T00:25:06;3.60;;;1.13;;
76256;SDS011;65074;50.436;8.672;2023-03-14T00:27:32;4.45;;;1.40;;
76256;SDS011;65074;50.436;8.672;2023-03-14T00:29:58;5.10;;;2.47;;
76256;SDS011;65074;50.436;8.672;2023-03-14T00:32:23;3.83;;;1.30;;
76256;SDS011;65074;50.436;8.672;2023-03-14T00:34:49;1.92;;;1.42;;
76256;SDS011;65074;50.436;8.672;2023-03-14T00:37:14;1.92;;;1.40;;
76256;SDS011;65074;50.436;8.672;2023-03-14T00:39:40;2.97;;;1.50;;
76256;SDS011;65074;50.436;8.672;2023-03-14T00:42:05;2.65;;;1.80;;
76256;SDS011;65074;50.436;8.672;2023-03-14T00:44:31;2.97;;;1.52;;
76256;SDS011;65074;50.436;8.672;2023-03-14T00:46:57;4.22;;;1.42;;
76256;SDS011;65074;50.436;8.672;2023-03-14T00:49:23;4.57;;;1.60;;
76256;SDS011;65074;50.436;8.672;2023-03-14T00:51:50;1.92;;;1.50;;
76256;SDS011;65074;50.436;8.672;2023-03-14T00:54:16;2.28;;;1.15;;
76256;SDS011;65074;50.436;8.672;2023-03-14T00:56:42;2.05;;;1.50;;
76256;SDS011;65074;50.436;8.672;2023-03-14T00:59:08;1.85;;;1.17;;
76256;SDS011;65074;50.436;8.672;2023-03-14T01:01:33;2.15;;;1.10;;
76256;SDS011;65074;50.436;8.672;2023-03-14T01:03:59;1.60;;;1.05;;
76256;SDS011;65074;50.436;8.672;2023-03-14T01:06:25;1.30;;;1.13;;
76256;SDS011;65074;50.436;8.672;2023-03-14T01:08:52;4.05;;;1.38;;
76256;SDS011;65074;50.436;8.672;2023-03-14T01:11:19;4.38;;;1.30;;
76256;SDS011;65074;50.436;8.672;2023-03-14T01:13:50;3.35;;;1.35;;
76256;SDS011;65074;50.436;8.672;2023-03-14T01:16:16;1.85;;;1.00;;
76256;SDS011;65074;50.436;8.672;2023-03-14T01:18:43;2.28;;;0.98;;
76256;SDS011;65074;50.436;8.672;2023-03-14T01:23:41;3.85;;;1.50;;
76256;SDS011;65074;50.436;8.672;2023-03-14T01:26:11;3.75;;;1.50;;
76256;SDS011;65074;50.436;8.672;2023-03-14T01:28:38;1.80;;;1.25;;
76256;SDS011;65074;50.436;8.672;2023-03-14T01:31:04;2.22;;;1.13;;
76256;SDS011;65074;50.436;8.672;2023-03-14T01:33:31;4.60;;;1.38;;
76256;SDS011;65074;50.436;8.672;2023-03-14T01:35:57;5.15;;;1.38;;
76256;SDS011;65074;50.436;8.672;2023-03-14T01:38:22;2.60;;;1.13;;
76256;SDS011;65074;50.436;8.672;2023-03-14T01:40:48;2.63;;;1.30;;
76256;SDS011;65074;50.436;8.672;2023-03-14T01:43:15;3.70;;;1.35;;
76256;SDS011;65074;50.436;8.672;2023-03-14T01:48:31;1.20;;;1.10;;
76256;SDS011;65074;50.436;8.672;2023-03-14T01:51:00;2.47;;;1.55;;
76256;SDS011;65074;50.436;8.672;2023-03-14T01:53:29;4.15;;;1.33;;
76256;SDS011;65074;50.436;8.672;2023-03-14T01:55:55;4.22;;;1.33;;
76256;SDS011;65074;50.436;8.672;2023-03-14T01:58:24;4.18;;;1.60;;
76256;SDS011;65074;50.436;8.672;2023-03-14T02:00:53;1.70;;;1.10;;
76256;SDS011;65074;50.436;8.672;2023-03-14T02:03:20;2.80;;;1.63;;
76256;SDS011;65074;50.436;8.672;2023-03-14T02:05:48;2.42;;;1.10;;
76256;SDS011;65074;50.436;8.672;2023-03-14T02:08:19;6.95;;;1.45;;
76256;SDS011;65074;50.436;8.672;2023-03-14T02:10:49;3.35;;;1.13;;
76256;SDS011;65074;50.436;8.672;2023-03-14T02:13:20;3.58;;;1.60;;
76256;SDS011;65074;50.436;8.672;2023-03-14T02:15:49;3.22;;;1.38;;
76256;SDS011;65074;50.436;8.672;2023-03-14T02:18:34;2.47;;;0.70;;
76256;SDS011;65074;50.436;8.672;2023-03-14T02:21:23;3.13;;;1.15;;
76256;SDS011;65074;50.436;8.672;2023-03-14T02:26:43;4.25;;;1.20;;
76256;SDS011;65074;50.436;8.672;2023-03-14T02:31:59;3.65;;;1.10;;
76256;SDS011;65074;50.436;8.672;2023-03-14T02:34:25;2.35;;;1.00;;
76256;SDS011;65074;50.436;8.672;2023-03-14T02:36:51;3.97;;;1.10;;
76256;SDS011;65074;50.436;8.672;2023-03-14T02:42:16;3.10;;;1.15;;
76256;SDS011;65074;50.436;8.672;2023-03-14T02:44:52;3.47;;;1.17;;
76256;SDS011;65074;50.436;8.672;2023-03-14T02:47:21;3.28;;;0.88;;
76256;SDS011;65074;50.436;8.672;2023-03-14T02:49:52;2.05;;;0.85;;
76256;SDS011;65074;50.436;8.672;2023-03-14T02:52:24;1.92;;;0.90;;
76256;SDS011;65074;50.436;8.672;2023-03-14T02:54:50;1.55;;;1.05;;
76256;SDS011;65074;50.436;8.672;2023-03-14T02:57:15;3.75;;;1.50;;
76256;SDS011;65074;50.436;8.672;2023-03-14T02:59:41;2.30;;;1.10;;
76256;SDS011;65074;50.436;8.672;2023-03-14T03:02:12;3.20;;;1.10;;
76256;SDS011;65074;50.436;8.672;2023-03-14T03:04:37;1.90;;;1.17;;
76256;SDS011;65074;50.436;8.672;2023-03-14T03:07:03;6.20;;;1.33;;
76256;SDS011;65074;50.436;8.672;2023-03-14T03:09:28;1.65;;;1.15;;
76256;SDS011;65074;50.436;8.672;2023-03-14T03:11:53;1.77;;;0.68;;
76256;SDS011;65074;50.436;8.672;2023-03-14T03:14:21;1.48;;;1.08;;
76256;SDS011;65074;50.436;8.672;2023-03-14T03:16:47;1.48;;;0.90;;
76256;SDS011;65074;50.436;8.672;2023-03-14T03:19:13;2.22;;;0.82;;
76256;SDS011;65074;50.436;8.672;2023-03-14T03:21:39;5.93;;;1.40;;
76256;SDS011;65074;50.436;8.672;2023-03-14T03:24:04;2.75;;;1.30;;
76256;SDS011;65074;50.436;8.672;2023-03-14T03:26:33;2.85;;;0.90;;
76256;SDS011;65074;50.436;8.672;2023-03-14T03:29:03;1.10;;;0.90;;
76256;SDS011;65074;50.436;8.672;2023-03-14T03:31:28;2.53;;;0.70;;
76256;SDS011;65074;50.436;8.672;2023-03-14T03:33:54;6.68;;;1.23;;
76256;SDS011;65074;50.436;8.672;2023-03-14T03:36:20;5.15;;;1.02;;
76256;SDS011;65074;50.436;8.672;2023-03-14T03:38:50;2.30;;;1.23;;
76256;SDS011;65074;50.436;8.672;2023-03-14T03:41:15;2.95;;;0.98;;
76256;SDS011;65074;50.436;8.672;2023-03-14T03:43:41;2.08;;;0.80;;
76256;SDS011;65074;50.436;8.672;2023-03-14T03:46:08;3.03;;;0.90;;
76256;SDS011;65074;50.436;8.672;2023-03-14T03:48:34;2.97;;;0.80;;
76256;SDS011;65074;50.436;8.672;2023-03-14T03:51:02;2.08;;;0.95;;
76256;SDS011;65074;50.436;8.672;2023-03-14T03:53:28;5.82;;;1.30;;
76256;SDS011;65074;50.436;8.672;2023-03-14T03:55:54;1.63;;;1.10;;
76256;SDS011;65074;50.436;8.672;2023-03-14T03:58:19;2.75;;;1.00;;
76256;SDS011;65074;50.436;8.672;2023-03-14T04:00:45;2.40;;;0.90;;
76256;SDS011;65074;50.436;8.672;2023-03-14T04:03:11;2.58;;;1.23;;
76256;SDS011;65074;50.436;8.672;2023-03-14T04:05:37;2.63;;;0.88;;
76256;SDS011;65074;50.436;8.672;2023-03-14T04:08:07;5.28;;;1.20;;
76256;SDS011;65074;50.436;8.672;2023-03-14T04:10:34;2.25;;;1.02;;
76256;SDS011;65074;50.436;8.672;2023-03-14T04:13:20;5.80;;;1.00;;
76256;SDS011;65074;50.436;8.672;2023-03-14T04:15:50;3.88;;;1.10;;
76256;SDS011;65074;50.436;8.672;2023-03-14T04:18:24;2.97;;;1.40;;
76256;SDS011;65074;50.436;8.672;2023-03-14T04:20:54;3.97;;;1.25;;
76256;SDS011;65074;50.436;8.672;2023-03-14T04:23:25;1.80;;;0.82;;
76256;SDS011;65074;50.436;8.672;2023-03-14T04:25:51;2.25;;;1.10;;
76256;SDS011;65074;50.436;8.672;2023-03-14T04:28:17;3.95;;;1.45;;
76256;SDS011;65074;50.436;8.672;2023-03-14T04:30:44;2.92;;;1.15;;
76256;SDS011;65074;50.436;8.672;2023-03-14T04:33:13;2.55;;;0.90;;
76256;SDS011;65074;50.436;8.672;2023-03-14T04:35:46;1.55;;;1.25;;
76256;SDS011;65074;50.436;8.672;2023-03-14T04:38:13;6.95;;;1.25;;
76256;SDS011;65074;50.436;8.672;2023-03-14T04:40:41;1.50;;;1.20;;
76256;SDS011;65074;50.436;8.672;2023-03-14T04:43:08;2.70;;;0.85;;
76256;SDS011;65074;50.436;8.672;2023-03-14T04:45:35;4.05;;;1.20;;
76256;SDS011;65074;50.436;8.672;2023-03-14T04:48:04;1.60;;;1.02;;
76256;SDS011;65074;50.436;8.672;2023-03-14T04:50:30;1.58;;;0.82;;
76256;SDS011;65074;50.436;8.672;2023-03-14T04:52:55;1.92;;;1.00;;
76256;SDS011;65074;50.436;8.672;2023-03-14T04:55:21;1.95;;;1.10;;
76256;SDS011;65074;50.436;8.672;2023-03-14T04:57:46;4.20;;;1.10;;
76256;SDS011;65074;50.436;8.672;2023-03-14T05:00:12;1.52;;;0.90;;
76256;SDS011;65074;50.436;8.672;2023-03-14T05:02:58;3.25;;;1.08;;
76256;SDS011;65074;50.436;8.672;2023-03-14T05:05:32;3.60;;;0.60;;
76256;SDS011;65074;50.436;8.672;2023-03-14T05:08:07;2.20;;;1.00;;
76256;SDS011;65074;50.436;8.672;2023-03-14T05:10:55;1.98;;;0.88;;
76256;SDS011;65074;50.436;8.672;2023-03-14T05:13:51;2.53;;;0.98;;
76256;SDS011;65074;50.436;8.672;2023-03-14T05:16:44;1.15;;;0.68;;
76256;SDS011;65074;50.436;8.672;2023-03-14T05:19:32;3.97;;;1.23;;
76256;SDS011;65074;50.436;8.672;2023-03-14T05:22:20;3.75;;;1.25;;
76256;SDS011;65074;50.436;8.672;2023-03-14T05:25:12;1.88;;;1.23;;
76256;SDS011;65074;50.436;8.672;2023-03-14T05:27:56;1.23;;;0.90;;
76256;SDS011;65074;50.436;8.672;2023-03-14T05:33:19;1.25;;;0.90;;
76256;SDS011;65074;50.436;8.672;2023-03-14T05:36:08;1.30;;;0.82;;
76256;SDS011;65074;50.436;8.672;2023-03-14T05:38:40;1.40;;;0.80;;
76256;SDS011;65074;50.436;8.672;2023-03-14T05:41:24;2.33;;;1.33;;
76256;SDS011;65074;50.436;8.672;2023-03-14T05:44:14;2.25;;;1.33;;
76256;SDS011;65074;50.436;8.672;2023-03-14T05:47:15;2.58;;;0.70;;
76256;SDS011;65074;50.436;8.672;2023-03-14T05:49:59;2.03;;;1.13;;
76256;SDS011;65074;50.436;8.672;2023-03-14T05:52:53;2.47;;;0.90;;
76256;SDS011;65074;50.436;8.672;2023-03-14T05:55:33;1.40;;;0.90;;
76256;SDS011;65074;50.436;8.672;2023-03-14T05:58:37;2.30;;;0.70;;
76256;SDS011;65074;50.436;8.672;2023-03-14T06:01:17;2.13;;;1.00;;
76256;SDS011;65074;50.436;8.672;2023-03-14T06:03:59;1.63;;;0.60;;
76256;SDS011;65074;50.436;8.672;2023-03-14T06:06:24;0.50;;;0.40;;
76256;SDS011;65074;50.436;8.672;2023-03-14T06:08:50;2.00;;;0.65;;
76256;SDS011;65074;50.436;8.672;2023-03-14T06:11:15;1.38;;;0.60;;
76256;SDS011;65074;50.436;8.672;2023-03-14T06:13:41;1.85;;;0.60;;
76256;SDS011;65074;50.436;8.672;2023-03-14T06:16:07;1.13;;;0.60;;
76256;SDS011;65074;50.436;8.672;2023-03-14T06:18:33;2.08;;;0.50;;
76256;SDS011;65074;50.436;8.672;2023-03-14T06:20:59;1.80;;;0.75;;
76256;SDS011;65074;50.436;8.672;2023-03-14T06:23:25;1.30;;;0.80;;
76256;SDS011;65074;50.436;8.672;2023-03-14T06:25:51;1.60;;;0.90;;
76256;SDS011;65074;50.436;8.672;2023-03-14T06:28:17;2.38;;;0.50;;
76256;SDS011;65074;50.436;8.672;2023-03-14T06:30:42;1.42;;;0.60;;
76256;SDS011;65074;50.436;8.672;2023-03-14T06:33:10;1.73;;;0.50;;
76256;SDS011;65074;50.436;8.672;2023-03-14T06:35:35;3.42;;;1.00;;
76256;SDS011;65074;50.436;8.672;2023-03-14T06:38:01;2.25;;;0.40;;
76256;SDS011;65074;50.436;8.672;2023-03-14T06:40:26;1.75;;;0.38;;
76256;SDS011;65074;50.436;8.672;2023-03-14T06:42:56;3.92;;;0.93;;
76256;SDS011;65074;50.436;8.672;2023-03-14T06:45:22;2.22;;;0.57;;
76256;SDS011;65074;50.436;8.672;2023-03-14T06:47:49;0.63;;;0.40;;
76256;SDS011;65074;50.436;8.672;2023-03-14T06:50:17;0.40;;;0.30;;
76256;SDS011;65074;50.436;8.672;2023-03-14T06:52:44;0.55;;;0.47;;
76256;SDS011;65074;50.436;8.672;2023-03-14T06:55:15;1.50;;;0.47;;
76256;SDS011;65074;50.436;8.672;2023-03-14T06:57:42;0.63;;;0.35;;
76256;SDS011;65074;50.436;8.672;2023-03-14T07:00:09;1.40;;;0.70;;
76256;SDS011;65074;50.436;8.672;2023-03-14T07:02:36;0.95;;;0.60;;
76256;SDS011;65074;50.436;8.672;2023-03-14T07:05:02;1.17;;;0.60;;
76256;SDS011;65074;50.436;8.672;2023-03-14T07:07:28;1.55;;;0.43;;
76256;SDS011;65074;50.436;8.672;2023-03-14T07:09:53;2.15;;;0.98;;
76256;SDS011;65074;50.436;8.672;2023-03-14T07:12:19;0.80;;;0.40;;
76256;SDS011;65074;50.436;8.672;2023-03-14T07:14:44;1.23;;;0.40;;
76256;SDS011;65074;50.436;8.672;2023-03-14T07:17:10;2.28;;;0.57;;
76256;SDS011;65074;50.436;8.672;2023-03-14T07:19:35;1.80;;;0.50;;
76256;SDS011;65074;50.436;8.672;2023-03-14T07:22:01;2.40;;;0.63;;
76256;SDS011;65074;50.436;8.672;2023-03-14T07:24:27;1.48;;;0.60;;
76256;SDS011;65074;50.436;8.672;2023-03-14T07:26:53;0.80;;;0.40;;
76256;SDS011;65074;50.436;8.672;2023-03-14T07:29:18;0.80;;;0.38;;
76256;SDS011;65074;50.436;8.672;2023-03-14T07:31:44;1.00;;;0.50;;
76256;SDS011;65074;50.436;8.672;2023-03-14T07:34:10;1.73;;;1.08;;
76256;SDS011;65074;50.436;8.672;2023-03-14T07:36:39;1.92;;;0.40;;
76256;SDS011;65074;50.436;8.672;2023-03-14T07:39:04;1.08;;;0.38;;
76256;SDS011;65074;50.436;8.672;2023-03-14T07:41:43;1.50;;;0.40;;
76256;SDS011;65074;50.436;8.672;2023-03-14T07:44:27;1.17;;;0.50;;
76256;SDS011;65074;50.436;8.672;2023-03-14T07:46:52;0.90;;;0.60;;
76256;SDS011;65074;50.436;8.672;2023-03-14T07:49:18;1.33;;;0.75;;
76256;SDS011;65074;50.436;8.672;2023-03-14T07:51:49;2.47;;;0.32;;
76256;SDS011;65074;50.436;8.672;2023-03-14T07:54:15;1.92;;;0.50;;
76256;SDS011;65074;50.436;8.672;2023-03-14T07:56:41;2.15;;;0.52;;
76256;SDS011;65074;50.436;8.672;2023-03-14T07:59:06;2.60;;;0.70;;
76256;SDS011;65074;50.436;8.672;2023-03-14T08:01:32;0.55;;;0.50;;
76256;SDS011;65074;50.436;8.672;2023-03-14T08:03:57;1.70;;;0.40;;
76256;SDS011;65074;50.436;8.672;2023-03-14T08:06:23;1.35;;;0.70;;
76256;SDS011;65074;50.436;8.672;2023-03-14T08:08:48;0.40;;;0.30;;
76256;SDS011;65074;50.436;8.672;2023-03-14T08:11:14;1.48;;;0.40;;
76256;SDS011;65074;50.436;8.672;2023-03-14T08:13:39;0.70;;;0.40;;
76256;SDS011;65074;50.436;8.672;2023-03-14T08:16:05;0.63;;;0.40;;
76256;SDS011;65074;50.436;8.672;2023-03-14T08:18:30;0.40;;;0.28;;
76256;SDS011;65074;50.436;8.672;2023-03-14T08:20:56;0.55;;;0.40;;
76256;SDS011;65074;50.436;8.672;2023-03-14T08:23:21;1.05;;;0.50;;
76256;SDS011;65074;50.436;8.672;2023-03-14T08:25:50;1.40;;;0.50;;
76256;SDS011;65074;50.436;8.672;2023-03-14T08:28:16;1.67;;;0.40;;
76256;SDS011;65074;50.436;8.672;2023-03-14T08:30:42;1.13;;;0.45;;
76256;SDS011;65074;50.436;8.672;2023-03-14T08:33:07;0.63;;;0.50;;
76256;SDS011;65074;50.436;8.672;2023-03-14T08:35:33;0.73;;;0.55;;
76256;SDS011;65074;50.436;8.672;2023-03-14T08:37:59;1.10;;;0.40;;
76256;SDS011;65074;50.436;8.672;2023-03-14T08:40:24;0.65;;;0.50;;
76256;SDS011;65074;50.436;8.672;2023-03-14T08:42:49;0.40;;;0.40;;
76256;SDS011;65074;50.436;8.672;2023-03-14T08:45:15;0.70;;;0.38;;
76256;SDS011;65074;50.436;8.672;2023-03-14T08:47:41;1.52;;;0.47;;
76256;SDS011;65074;50.436;8.672;2023-03-14T08:50:08;1.00;;;0.40;;
76256;SDS011;65074;50.436;8.672;2023-03-14T08:52:34;1.35;;;0.50;;
76256;SDS011;65074;50.436;8.672;2023-03-14T08:55:00;1.00;;;0.40;;
76256;SDS011;65074;50.436;8.672;2023-03-14T08:57:26;0.57;;;0.30;;
76256;SDS011;65074;50.436;8.672;2023-03-14T08:59:54;0.88;;;0.30;;
76256;SDS011;65074;50.436;8.672;2023-03-14T09:02:21;1.20;;;0.57;;
76256;SDS011;65074;50.436;8.672;2023-03-14T09:04:47;0.70;;;0.30;;
76256;SDS011;65074;50.436;8.672;2023-03-14T09:07:12;1.73;;;0.68;;
76256;SDS011;65074;50.436;8.672;2023-03-14T09:09:38;0.70;;;0.50;;
76256;SDS011;65074;50.436;8.672;2023-03-14T09:12:03;1.55;;;0.60;;
76256;SDS011;65074;50.436;8.672;2023-03-14T09:14:29;1.38;;;0.57;;
76256;SDS011;65074;50.436;8.672;2023-03-14T09:16:55;1.08;;;0.60;;
76256;SDS011;65074;50.436;8.672;2023-03-14T09:19:20;0.45;;;0.22;;
76256;SDS011;65074;50.436;8.672;2023-03-14T09:21:46;1.15;;;0.30;;
76256;SDS011;65074;50.436;8.672;2023-03-14T09:24:11;0.63;;;0.47;;
76256;SDS011;65074;50.436;8.672;2023-03-14T09:26:37;1.23;;;0.50;;
76256;SDS011;65074;50.436;8.672;2023-03-14T09:29:02;1.67;;;0.57;;
76256;SDS011;65074;50.436;8.672;2023-03-14T09:31:28;1.27;;;0.50;;
76256;SDS011;65074;50.436;8.672;2023-03-14T09:33:54;0.82;;;0.50;;
76256;SDS011;65074;50.436;8.672;2023-03-14T09:36:20;1.42;;;0.55;;
76256;SDS011;65074;50.436;8.672;2023-03-14T09:38:45;0.82;;;0.50;;
76256;SDS011;65074;50.436;8.672;2023-03-14T09:41:12;1.33;;;0.50;;
76256;SDS011;65074;50.436;8.672;2023-03-14T09:43:43;0.57;;;0.40;;
76256;SDS011;65074;50.436;8.672;2023-03-14T09:46:11;0.90;;;0.40;;
76256;SDS011;65074;50.436;8.672;2023-03-14T09:48:38;2.17;;;0.45;;
76256;SDS011;65074;50.436;8.672;2023-03-14T09:51:07;0.43;;;0.38;;
76256;SDS011;65074;50.436;8.672;2023-03-14T09:53:40;0.55;;;0.40;;
76256;SDS011;65074;50.436;8.672;2023-03-14T09:56:12;0.60;;;0.38;;
76256;SDS011;65074;50.436;8.672;2023-03-14T09:58:41;0.60;;;0.50;;
76256;SDS011;65074;50.436;8.672;2023-03-14T10:01:11;0.52;;;0.40;;
76256;SDS011;65074;50.436;8.672;2023-03-14T10:03:40;1.55;;;0.40;;
76256;SDS011;65074;50.436;8.672;2023-03-14T10:06:10;1.25;;;0.60;;
76256;SDS011;65074;50.436;8.672;2023-03-14T10:08:41;2.88;;;0.63;;
76256;SDS011;65074;50.436;8.672;2023-03-14T10:11:10;1.00;;;0.40;;
76256;SDS011;65074;50.436;8.672;2023-03-14T10:16:33;1.02;;;0.60;;
76256;SDS011;65074;50.436;8.672;2023-03-14T10:19:17;1.52;;;1.02;;
76256;SDS011;65074;50.436;8.672;2023-03-14T10:21:53;0.82;;;0.50;;
76256;SDS011;65074;50.436;8.672;2023-03-14T10:24:26;3.65;;;0.73;;
76256;SDS011;65074;50.436;8.672;2023-03-14T10:27:06;2.15;;;1.10;;
76256;SDS011;65074;50.436;8.672;2023-03-14T10:29:56;3.15;;;1.38;;
76256;SDS011;65074;50.436;8.672;2023-03-14T10:32:27;1.55;;;0.60;;
76256;SDS011;65074;50.436;8.672;2023-03-14T10:35:05;2.28;;;0.60;;
76256;SDS011;65074;50.436;8.672;2023-03-14T10:37:34;1.48;;;0.88;;
76256;SDS011;65074;50.436;8.672;2023-03-14T10:40:00;1.73;;;0.55;;
76256;SDS011;65074;50.436;8.672;2023-03-14T10:42:34;0.88;;;0.50;;
76256;SDS011;65074;50.436;8.672;2023-03-14T10:45:05;3.60;;;0.57;;
76256;SDS011;65074;50.436;8.672;2023-03-14T10:47:49;1.42;;;0.88;;
76256;SDS011;65074;50.436;8.672;2023-03-14T10:50:28;1.25;;;0.52;;
76256;SDS011;65074;50.436;8.672;2023-03-14T10:52:55;1.08;;;0.90;;
76256;SDS011;65074;50.436;8.672;2023-03-14T10:55:23;1.98;;;0.70;;
76256;SDS011;65074;50.436;8.672;2023-03-14T10:57:50;0.73;;;0.60;;
76256;SDS011;65074;50.436;8.672;2023-03-14T11:00:20;1.90;;;0.80;;
76256;SDS011;65074;50.436;8.672;2023-03-14T11:05:37;0.70;;;0.50;;
76256;SDS011;65074;50.436;8.672;2023-03-14T11:08:15;0.90;;;0.60;;
76256;SDS011;65074;50.436;8.672;2023-03-14T11:10:46;1.67;;;0.70;;
76256;SDS011;65074;50.436;8.672;2023-03-14T11:13:17;0.98;;;0.75;;
76256;SDS011;65074;50.436;8.672;2023-03-14T11:16:19;1.15;;;0.70;;
76256;SDS011;65074;50.436;8.672;2023-03-14T11:18:57;0.60;;;0.52;;
76256;SDS011;65074;50.436;8.672;2023-03-14T11:24:12;1.63;;;0.75;;
76256;SDS011;65074;50.436;8.672;2023-03-14T11:27:54;1.48;;;1.00;;
76256;SDS011;65074;50.436;8.672;2023-03-14T11:32:35;1.70;;;0.65;;
76256;SDS011;65074;50.436;8.672;2023-03-14T11:37:54;1.45;;;0.98;;
76256;SDS011;65074;50.436;8.672;2023-03-14T11:40:26;0.65;;;0.65;;
76256;SDS011;65074;50.436;8.672;2023-03-14T11:42:59;0.93;;;0.60;;
76256;SDS011;65074;50.436;8.672;2023-03-14T11:45:39;0.77;;;0.50;;
76256;SDS011;65074;50.436;8.672;2023-03-14T11:48:21;0.85;;;0.55;;
76256;SDS011;65074;50.436;8.672;2023-03-14T11:50:55;2.00;;;0.98;;
76256;SDS011;65074;50.436;8.672;2023-03-14T11:53:29;1.05;;;0.50;;
76256;SDS011;65074;50.436;8.672;2023-03-14T11:57:19;0.68;;;0.25;;
76256;SDS011;65074;50.436;8.672;2023-03-14T12:13:17;0.40;;;0.22;;
76256;SDS011;65074;50.436;8.672;2023-03-14T12:15:53;1.05;;;0.60;;
76256;SDS011;65074;50.436;8.672;2023-03-14T12:18:42;0.40;;;0.30;;
76256;SDS011;65074;50.436;8.672;2023-03-14T12:21:08;2.10;;;0.40;;
76256;SDS011;65074;50.436;8.672;2023-03-14T12:23:42;1.25;;;0.50;;
76256;SDS011;65074;50.436;8.672;2023-03-14T12:28:50;2.30;;;0.40;;
76256;SDS011;65074;50.436;8.672;2023-03-14T12:34:04;1.10;;;0.38;;
76256;SDS011;65074;50.436;8.672;2023-03-14T12:45:22;1.17;;;0.50;;
76256;SDS011;65074;50.436;8.672;2023-03-14T12:50:54;0.98;;;0.70;;
76256;SDS011;65074;50.436;8.672;2023-03-14T13:04:11;0.55;;;0.40;;
76256;SDS011;65074;50.436;8.672;2023-03-14T13:06:50;1.58;;;0.43;;
76256;SDS011;65074;50.436;8.672;2023-03-14T13:11:54;0.63;;;0.63;;
76256;SDS011;65074;50.436;8.672;2023-03-14T13:14:28;0.40;;;0.30;;
76256;SDS011;65074;50.436;8.672;2023-03-14T13:16:55;0.57;;;0.47;;
76256;SDS011;65074;50.436;8.672;2023-03-14T13:19:28;0.63;;;0.30;;
76256;SDS011;65074;50.436;8.672;2023-03-14T13:22:02;0.82;;;0.60;;
76256;SDS011;65074;50.436;8.672;2023-03-14T13:24:32;0.45;;;0.45;;
76256;SDS011;65074;50.436;8.672;2023-03-14T13:26:59;0.95;;;0.45;;
76256;SDS011;65074;50.436;8.672;2023-03-14T13:29:26;0.75;;;0.57;;
76256;SDS011;65074;50.436;8.672;2023-03-14T13:31:54;0.80;;;0.60;;
76256;SDS011;65074;50.436;8.672;2023-03-14T13:34:31;0.90;;;0.77;;
76256;SDS011;65074;50.436;8.672;2023-03-14T13:36:58;1.83;;;0.70;;
76256;SDS011;65074;50.436;8.672;2023-03-14T13:39:24;2.05;;;0.77;;
76256;SDS011;65074;50.436;8.672;2023-03-14T13:41:54;1.00;;;0.80;;
76256;SDS011;65074;50.436;8.672;2023-03-14T13:44:25;1.30;;;0.60;;
76256;SDS011;65074;50.436;8.672;2023-03-14T13:47:02;1.15;;;0.57;;
76256;SDS011;65074;50.436;8.672;2023-03-14T13:49:30;1.52;;;0.60;;
76256;SDS011;65074;50.436;8.672;2023-03-14T13:51:59;0.35;;;0.35;;
76256;SDS011;65074;50.436;8.672;2023-03-14T13:54:25;1.13;;;0.40;;
76256;SDS011;65074;50.436;8.672;2023-03-14T13:57:01;0.75;;;0.40;;
76256;SDS011;65074;50.436;8.672;2023-03-14T13:59:29;0.38;;;0.32;;
76256;SDS011;65074;50.436;8.672;2023-03-14T14:02:00;0.40;;;0.30;;
76256;SDS011;65074;50.436;8.672;2023-03-14T14:04:30;0.30;;;0.22;;
76256;SDS011;65074;50.436;8.672;2023-03-14T14:06:59;0.45;;;0.35;;
76256;SDS011;65074;50.436;8.672;2023-03-14T14:09:30;0.30;;;0.20;;
76256;SDS011;65074;50.436;8.672;2023-03-14T14:12:05;0.35;;;0.30;;
76256;SDS011;65074;50.436;8.672;2023-03-14T14:14:39;0.70;;;0.43;;
76256;SDS011;65074;50.436;8.672;2023-03-14T14:17:10;0.40;;;0.30;;
76256;SDS011;65074;50.436;8.672;2023-03-14T14:19:38;2.15;;;0.60;;
76256;SDS011;65074;50.436;8.672;2023-03-14T14:22:05;1.17;;;0.40;;
76256;SDS011;65074;50.436;8.672;2023-03-14T14:24:32;0.85;;;0.40;;
76256;SDS011;65074;50.436;8.672;2023-03-14T14:26:59;0.45;;;0.38;;
76256;SDS011;65074;50.436;8.672;2023-03-14T14:29:28;0.82;;;0.32;;
76256;SDS011;65074;50.436;8.672;2023-03-14T14:32:00;0.50;;;0.30;;
76256;SDS011;65074;50.436;8.672;2023-03-14T14:34:26;0.73;;;0.47;;
76256;SDS011;65074;50.436;8.672;2023-03-14T14:36:52;0.63;;;0.43;;
76256;SDS011;65074;50.436;8.672;2023-03-14T14:39:19;1.00;;;0.57;;
76256;SDS011;65074;50.436;8.672;2023-03-14T14:41:48;0.95;;;0.45;;
76256;SDS011;65074;50.436;8.672;2023-03-14T14:44:26;1.10;;;0.70;;
76256;SDS011;65074;50.436;8.672;2023-03-14T14:46:55;1.48;;;0.70;;
76256;SDS011;65074;50.436;8.672;2023-03-14T14:49:28;1.63;;;0.73;;
76256;SDS011;65074;50.436;8.672;2023-03-14T14:52:00;2.47;;;1.00;;
76256;SDS011;65074;50.436;8.672;2023-03-14T14:54:34;0.55;;;0.50;;
76256;SDS011;65074;50.436;8.672;2023-03-14T14:57:04;0.65;;;0.63;;
76256;SDS011;65074;50.436;8.672;2023-03-14T14:59:31;0.90;;;0.73;;
76256;SDS011;65074;50.436;8.672;2023-03-14T15:01:59;1.10;;;0.95;;
76256;SDS011;65074;50.436;8.672;2023-03-14T15:04:26;1.65;;;0.95;;
76256;SDS011;65074;50.436;8.672;2023-03-14T15:06:52;1.00;;;0.60;;
76256;SDS011;65074;50.436;8.672;2023-03-14T15:09:18;1.17;;;0.80;;
76256;SDS011;65074;50.436;8.672;2023-03-14T15:11:46;1.02;;;0.70;;
76256;SDS011;65074;50.436;8.672;2023-03-14T15:14:12;1.42;;;0.75;;
76256;SDS011;65074;50.436;8.672;2023-03-14T15:16:38;0.85;;;0.40;;
76256;SDS011;65074;50.436;8.672;2023-03-14T15:19:10;2.05;;;0.35;;
76256;SDS011;65074;50.436;8.672;2023-03-14T15:21:37;0.52;;;0.40;;
76256;SDS011;65074;50.436;8.672;2023-03-14T15:24:04;0.75;;;0.40;;
76256;SDS011;65074;50.436;8.672;2023-03-14T15:26:30;1.20;;;0.30;;
76256;SDS011;65074;50.436;8.672;2023-03-14T15:28:55;0.90;;;0.30;;
76256;SDS011;65074;50.436;8.672;2023-03-14T15:31:21;1.27;;;0.50;;
76256;SDS011;65074;50.436;8.672;2023-03-14T15:33:47;1.33;;;0.50;;
76256;SDS011;65074;50.436;8.672;2023-03-14T15:36:19;0.47;;;0.30;;
76256;SDS011;65074;50.436;8.672;2023-03-14T15:38:50;0.20;;;0.20;;
76256;SDS011;65074;50.436;8.672;2023-03-14T15:41:17;0.65;;;0.40;;
76256;SDS011;65074;50.436;8.672;2023-03-14T15:43:43;1.52;;;0.57;;
76256;SDS011;65074;50.436;8.672;2023-03-14T15:46:09;0.35;;;0.32;;
76256;SDS011;65074;50.436;8.672;2023-03-14T15:48:35;1.42;;;0.55;;
76256;SDS011;65074;50.436;8.672;2023-03-14T15:51:00;1.30;;;0.60;;
76256;SDS011;65074;50.436;8.672;2023-03-14T15:53:26;1.05;;;0.63;;
76256;SDS011;65074;50.436;8.672;2023-03-14T15:55:51;1.00;;;0.82;;
76256;SDS011;65074;50.436;8.672;2023-03-14T15:58:17;0.80;;;0.50;;
76256;SDS011;65074;50.436;8.672;2023-03-14T16:00:43;0.57;;;0.50;;
76256;SDS011;65074;50.436;8.672;2023-03-14T16:03:09;1.00;;;0.70;;
76256;SDS011;65074;50.436;8.672;2023-03-14T16:05:36;1.23;;;0.80;;
76256;SDS011;65074;50.436;8.672;2023-03-14T16:08:01;1.48;;;1.38;;
76256;SDS011;65074;50.436;8.672;2023-03-14T16:10:28;0.77;;;0.60;;
76256;SDS011;65074;50.436;8.672;2023-03-14T16:12:53;1.02;;;0.80;;
76256;SDS011;65074;50.436;8.672;2023-03-14T16:15:19;1.05;;;0.70;;
76256;SDS011;65074;50.436;8.672;2023-03-14T16:17:44;0.57;;;0.43;;